sensor_id;sensor_type;location;lat;lon;timestamp;P1;durP1;ratioP1;P2;durP2;ratioP2
59109;SDS011;44895;47.438;18.978;2023-04-24T00:00:14;12.65;;;8.07;;
59109;SDS011;44895;47.438;18.978;2023-04-24T00:03:18;11.68;;;8.82;;
59109;SDS011;44895;47.438;18.978;2023-04-24T00:06:24;10.20;;;7.57;;
59109;SDS011;44895;47.438;18.978;2023-04-24T00:09:27;13.80;;;8.60;;
59109;SDS011;44895;47.438;18.978;2023-04-24T00:12:31;14.32;;;8.23;;
59109;SDS011;44895;47.438;18.978;2023-04-24T00:15:35;10.13;;;6.95;;
59109;SDS011;44895;47.438;18.978;2023-04-24T00:18:39;11.35;;;7.40;;
59109;SDS011;44895;47.438;18.978;2023-04-24T00:21:43;13.23;;;7.00;;
59109;SDS011;44895;47.438;18.978;2023-04-24T00:24:46;11.38;;;7.30;;
59109;SDS011;44895;47.438;18.978;2023-04-24T00:27:50;14.98;;;7.55;;
59109;SDS011;44895;47.438;18.978;2023-04-24T00:30:54;10.57;;;6.35;;
59109;SDS011;44895;47.438;18.978;2023-04-24T00:33:58;10.45;;;6.45;;
59109;SDS011;44895;47.438;18.978;2023-04-24T00:37:02;9.90;;;5.97;;
59109;SDS011;44895;47.438;18.978;2023-04-24T00:40:05;12.15;;;6.72;;
59109;SDS011;44895;47.438;18.978;2023-04-24T00:43:09;9.82;;;5.93;;
59109;SDS011;44895;47.438;18.978;2023-04-24T00:46:13;8.90;;;6.35;;
59109;SDS011;44895;47.438;18.978;2023-04-24T00:49:18;11.32;;;7.18;;
59109;SDS011;44895;47.438;18.978;2023-04-24T00:52:22;12.50;;;6.68;;
59109;SDS011;44895;47.438;18.978;2023-04-24T00:55:27;10.65;;;6.75;;
59109;SDS011;44895;47.438;18.978;2023-04-24T00:58:31;9.70;;;6.40;;
59109;SDS011;44895;47.438;18.978;2023-04-24T01:01:35;12.13;;;6.43;;
59109;SDS011;44895;47.438;18.978;2023-04-24T01:04:40;20.70;;;7.35;;
59109;SDS011;44895;47.438;18.978;2023-04-24T01:07:45;10.85;;;5.72;;
59109;SDS011;44895;47.438;18.978;2023-04-24T01:10:52;10.82;;;6.38;;
59109;SDS011;44895;47.438;18.978;2023-04-24T01:13:56;8.95;;;6.00;;
59109;SDS011;44895;47.438;18.978;2023-04-24T01:17:00;12.93;;;6.55;;
59109;SDS011;44895;47.438;18.978;2023-04-24T01:20:05;14.50;;;6.70;;
59109;SDS011;44895;47.438;18.978;2023-04-24T01:23:09;16.35;;;7.28;;
59109;SDS011;44895;47.438;18.978;2023-04-24T01:26:16;11.65;;;7.30;;
59109;SDS011;44895;47.438;18.978;2023-04-24T01:29:21;14.43;;;7.18;;
59109;SDS011;44895;47.438;18.978;2023-04-24T01:32:25;13.63;;;7.82;;
59109;SDS011;44895;47.438;18.978;2023-04-24T01:35:29;11.40;;;7.30;;
59109;SDS011;44895;47.438;18.978;2023-04-24T01:38:33;15.73;;;8.85;;
59109;SDS011;44895;47.438;18.978;2023-04-24T01:41:37;10.52;;;6.85;;
59109;SDS011;44895;47.438;18.978;2023-04-24T01:44:41;13.73;;;7.60;;
59109;SDS011;44895;47.438;18.978;2023-04-24T01:47:45;12.52;;;7.45;;
59109;SDS011;44895;47.438;18.978;2023-04-24T01:50:49;14.23;;;8.43;;
59109;SDS011;44895;47.438;18.978;2023-04-24T01:53:53;12.18;;;8.07;;
59109;SDS011;44895;47.438;18.978;2023-04-24T01:56:57;14.27;;;8.48;;
59109;SDS011;44895;47.438;18.978;2023-04-24T02:00:00;11.38;;;7.40;;
59109;SDS011;44895;47.438;18.978;2023-04-24T02:03:16;11.82;;;7.85;;
59109;SDS011;44895;47.438;18.978;2023-04-24T02:06:20;13.63;;;8.13;;
59109;SDS011;44895;47.438;18.978;2023-04-24T02:09:23;11.60;;;7.90;;
59109;SDS011;44895;47.438;18.978;2023-04-24T02:12:27;14.60;;;8.38;;
59109;SDS011;44895;47.438;18.978;2023-04-24T02:15:31;11.30;;;8.68;;
59109;SDS011;44895;47.438;18.978;2023-04-24T02:18:35;12.15;;;8.05;;
59109;SDS011;44895;47.438;18.978;2023-04-24T02:21:39;10.48;;;7.80;;
59109;SDS011;44895;47.438;18.978;2023-04-24T02:24:45;12.60;;;8.05;;
59109;SDS011;44895;47.438;18.978;2023-04-24T02:27:52;13.93;;;8.60;;
59109;SDS011;44895;47.438;18.978;2023-04-24T02:30:56;14.68;;;10.57;;
59109;SDS011;44895;47.438;18.978;2023-04-24T02:33:59;14.43;;;8.90;;
59109;SDS011;44895;47.438;18.978;2023-04-24T02:37:03;15.52;;;9.00;;
59109;SDS011;44895;47.438;18.978;2023-04-24T02:40:07;10.48;;;8.30;;
59109;SDS011;44895;47.438;18.978;2023-04-24T02:43:11;15.20;;;9.95;;
59109;SDS011;44895;47.438;18.978;2023-04-24T02:46:15;10.57;;;7.15;;
59109;SDS011;44895;47.438;18.978;2023-04-24T02:49:19;12.05;;;8.00;;
59109;SDS011;44895;47.438;18.978;2023-04-24T02:52:23;13.90;;;8.48;;
59109;SDS011;44895;47.438;18.978;2023-04-24T02:55:26;15.63;;;9.13;;
59109;SDS011;44895;47.438;18.978;2023-04-24T02:58:30;13.00;;;9.23;;
59109;SDS011;44895;47.438;18.978;2023-04-24T03:01:34;12.23;;;9.23;;
59109;SDS011;44895;47.438;18.978;2023-04-24T03:04:38;13.43;;;9.20;;
59109;SDS011;44895;47.438;18.978;2023-04-24T03:07:43;13.38;;;9.20;;
59109;SDS011;44895;47.438;18.978;2023-04-24T03:10:46;12.77;;;8.77;;
59109;SDS011;44895;47.438;18.978;2023-04-24T03:13:52;13.52;;;8.77;;
59109;SDS011;44895;47.438;18.978;2023-04-24T03:16:56;14.20;;;9.88;;
59109;SDS011;44895;47.438;18.978;2023-04-24T03:20:00;13.55;;;8.98;;
59109;SDS011;44895;47.438;18.978;2023-04-24T03:23:06;12.95;;;9.73;;
59109;SDS011;44895;47.438;18.978;2023-04-24T03:26:10;14.38;;;8.68;;
59109;SDS011;44895;47.438;18.978;2023-04-24T03:29:23;11.52;;;8.13;;
59109;SDS011;44895;47.438;18.978;2023-04-24T03:32:27;11.73;;;9.07;;
59109;SDS011;44895;47.438;18.978;2023-04-24T03:35:31;14.30;;;8.38;;
59109;SDS011;44895;47.438;18.978;2023-04-24T03:38:38;11.55;;;9.05;;
59109;SDS011;44895;47.438;18.978;2023-04-24T03:41:59;11.68;;;8.43;;
59109;SDS011;44895;47.438;18.978;2023-04-24T03:45:14;16.77;;;9.35;;
59109;SDS011;44895;47.438;18.978;2023-04-24T03:48:21;17.05;;;7.57;;
59109;SDS011;44895;47.438;18.978;2023-04-24T03:51:25;11.48;;;8.82;;
59109;SDS011;44895;47.438;18.978;2023-04-24T03:54:33;11.52;;;7.45;;
59109;SDS011;44895;47.438;18.978;2023-04-24T03:57:37;12.98;;;8.60;;
59109;SDS011;44895;47.438;18.978;2023-04-24T04:00:50;11.00;;;8.05;;
59109;SDS011;44895;47.438;18.978;2023-04-24T04:04:29;11.90;;;9.00;;
59109;SDS011;44895;47.438;18.978;2023-04-24T04:07:33;13.05;;;7.97;;
59109;SDS011;44895;47.438;18.978;2023-04-24T04:10:37;11.77;;;8.07;;
59109;SDS011;44895;47.438;18.978;2023-04-24T04:13:42;10.05;;;8.30;;
59109;SDS011;44895;47.438;18.978;2023-04-24T04:16:45;13.55;;;9.20;;
59109;SDS011;44895;47.438;18.978;2023-04-24T04:19:50;17.50;;;11.68;;
59109;SDS011;44895;47.438;18.978;2023-04-24T04:22:53;12.77;;;8.45;;
59109;SDS011;44895;47.438;18.978;2023-04-24T04:26:05;14.43;;;10.75;;
59109;SDS011;44895;47.438;18.978;2023-04-24T04:29:25;12.45;;;9.10;;
59109;SDS011;44895;47.438;18.978;2023-04-24T04:32:29;12.88;;;9.02;;
59109;SDS011;44895;47.438;18.978;2023-04-24T04:35:40;13.35;;;8.40;;
59109;SDS011;44895;47.438;18.978;2023-04-24T04:38:45;10.05;;;8.20;;
59109;SDS011;44895;47.438;18.978;2023-04-24T04:42:00;30.65;;;17.27;;
59109;SDS011;44895;47.438;18.978;2023-04-24T04:45:10;33.50;;;17.70;;
59109;SDS011;44895;47.438;18.978;2023-04-24T04:48:27;20.13;;;13.20;;
59109;SDS011;44895;47.438;18.978;2023-04-24T04:51:34;18.73;;;11.82;;
59109;SDS011;44895;47.438;18.978;2023-04-24T04:54:38;18.25;;;12.05;;
59109;SDS011;44895;47.438;18.978;2023-04-24T04:57:41;12.75;;;10.27;;
59109;SDS011;44895;47.438;18.978;2023-04-24T05:00:45;16.25;;;10.85;;
59109;SDS011;44895;47.438;18.978;2023-04-24T05:03:59;18.20;;;10.07;;
59109;SDS011;44895;47.438;18.978;2023-04-24T05:07:03;11.90;;;9.60;;
59109;SDS011;44895;47.438;18.978;2023-04-24T05:10:10;12.57;;;9.17;;
59109;SDS011;44895;47.438;18.978;2023-04-24T05:13:14;13.07;;;9.48;;
59109;SDS011;44895;47.438;18.978;2023-04-24T05:16:19;16.08;;;9.45;;
59109;SDS011;44895;47.438;18.978;2023-04-24T05:19:24;16.20;;;9.48;;
59109;SDS011;44895;47.438;18.978;2023-04-24T05:22:28;16.02;;;10.90;;
59109;SDS011;44895;47.438;18.978;2023-04-24T05:25:33;11.90;;;8.38;;
59109;SDS011;44895;47.438;18.978;2023-04-24T05:28:44;16.10;;;9.15;;
59109;SDS011;44895;47.438;18.978;2023-04-24T05:31:49;17.45;;;10.27;;
59109;SDS011;44895;47.438;18.978;2023-04-24T05:34:53;18.45;;;10.93;;
59109;SDS011;44895;47.438;18.978;2023-04-24T05:37:56;14.02;;;10.65;;
59109;SDS011;44895;47.438;18.978;2023-04-24T05:41:00;15.63;;;10.77;;
59109;SDS011;44895;47.438;18.978;2023-04-24T05:44:04;21.88;;;11.55;;
59109;SDS011;44895;47.438;18.978;2023-04-24T05:47:08;14.48;;;10.57;;
59109;SDS011;44895;47.438;18.978;2023-04-24T05:50:12;14.15;;;8.88;;
59109;SDS011;44895;47.438;18.978;2023-04-24T05:53:16;13.90;;;8.52;;
59109;SDS011;44895;47.438;18.978;2023-04-24T05:56:20;11.77;;;8.75;;
59109;SDS011;44895;47.438;18.978;2023-04-24T05:59:26;13.27;;;8.18;;
59109;SDS011;44895;47.438;18.978;2023-04-24T06:02:30;11.82;;;8.45;;
59109;SDS011;44895;47.438;18.978;2023-04-24T06:05:37;13.52;;;8.82;;
59109;SDS011;44895;47.438;18.978;2023-04-24T06:08:40;14.35;;;8.38;;
59109;SDS011;44895;47.438;18.978;2023-04-24T06:11:45;10.75;;;7.60;;
59109;SDS011;44895;47.438;18.978;2023-04-24T06:14:51;12.98;;;7.95;;
59109;SDS011;44895;47.438;18.978;2023-04-24T06:17:59;13.32;;;8.82;;
59109;SDS011;44895;47.438;18.978;2023-04-24T06:21:03;13.18;;;9.50;;
59109;SDS011;44895;47.438;18.978;2023-04-24T06:24:07;12.02;;;8.57;;
59109;SDS011;44895;47.438;18.978;2023-04-24T06:27:11;12.65;;;8.60;;
59109;SDS011;44895;47.438;18.978;2023-04-24T06:30:17;12.43;;;9.48;;
59109;SDS011;44895;47.438;18.978;2023-04-24T06:33:21;11.60;;;8.50;;
59109;SDS011;44895;47.438;18.978;2023-04-24T06:36:25;13.40;;;9.65;;
59109;SDS011;44895;47.438;18.978;2023-04-24T06:39:31;14.00;;;8.25;;
59109;SDS011;44895;47.438;18.978;2023-04-24T06:42:35;12.27;;;9.07;;
59109;SDS011;44895;47.438;18.978;2023-04-24T06:45:40;11.60;;;8.95;;
59109;SDS011;44895;47.438;18.978;2023-04-24T06:48:43;12.95;;;9.73;;
59109;SDS011;44895;47.438;18.978;2023-04-24T06:51:47;13.27;;;8.68;;
59109;SDS011;44895;47.438;18.978;2023-04-24T06:54:51;20.40;;;10.10;;
59109;SDS011;44895;47.438;18.978;2023-04-24T06:57:55;16.17;;;9.90;;
59109;SDS011;44895;47.438;18.978;2023-04-24T07:00:58;14.13;;;8.13;;
59109;SDS011;44895;47.438;18.978;2023-04-24T07:04:02;12.02;;;8.90;;
59109;SDS011;44895;47.438;18.978;2023-04-24T07:07:06;12.63;;;8.57;;
59109;SDS011;44895;47.438;18.978;2023-04-24T07:10:10;11.93;;;9.05;;
59109;SDS011;44895;47.438;18.978;2023-04-24T07:13:14;12.52;;;9.60;;
59109;SDS011;44895;47.438;18.978;2023-04-24T07:16:18;14.65;;;9.63;;
59109;SDS011;44895;47.438;18.978;2023-04-24T07:19:22;13.05;;;9.55;;
59109;SDS011;44895;47.438;18.978;2023-04-24T07:22:25;12.45;;;8.80;;
59109;SDS011;44895;47.438;18.978;2023-04-24T07:25:29;16.77;;;9.43;;
59109;SDS011;44895;47.438;18.978;2023-04-24T07:28:33;12.52;;;8.20;;
59109;SDS011;44895;47.438;18.978;2023-04-24T07:31:37;13.90;;;9.35;;
59109;SDS011;44895;47.438;18.978;2023-04-24T07:34:41;12.73;;;9.45;;
59109;SDS011;44895;47.438;18.978;2023-04-24T07:37:45;14.23;;;9.20;;
59109;SDS011;44895;47.438;18.978;2023-04-24T07:40:48;13.52;;;8.30;;
59109;SDS011;44895;47.438;18.978;2023-04-24T07:43:52;15.88;;;9.60;;
59109;SDS011;44895;47.438;18.978;2023-04-24T07:46:57;10.90;;;8.50;;
59109;SDS011;44895;47.438;18.978;2023-04-24T07:50:00;14.90;;;9.13;;
59109;SDS011;44895;47.438;18.978;2023-04-24T07:53:04;16.35;;;7.93;;
59109;SDS011;44895;47.438;18.978;2023-04-24T07:56:08;13.13;;;8.35;;
59109;SDS011;44895;47.438;18.978;2023-04-24T07:59:11;11.13;;;7.55;;
59109;SDS011;44895;47.438;18.978;2023-04-24T08:02:15;11.98;;;8.13;;
59109;SDS011;44895;47.438;18.978;2023-04-24T08:05:19;16.13;;;7.50;;
59109;SDS011;44895;47.438;18.978;2023-04-24T08:08:23;11.63;;;8.70;;
59109;SDS011;44895;47.438;18.978;2023-04-24T08:11:26;15.25;;;8.30;;
59109;SDS011;44895;47.438;18.978;2023-04-24T08:14:30;15.63;;;10.50;;
59109;SDS011;44895;47.438;18.978;2023-04-24T08:17:34;12.02;;;8.55;;
59109;SDS011;44895;47.438;18.978;2023-04-24T08:20:39;10.80;;;8.15;;
59109;SDS011;44895;47.438;18.978;2023-04-24T08:23:43;10.63;;;7.45;;
59109;SDS011;44895;47.438;18.978;2023-04-24T08:26:47;10.95;;;7.05;;
59109;SDS011;44895;47.438;18.978;2023-04-24T08:29:54;13.07;;;8.43;;
59109;SDS011;44895;47.438;18.978;2023-04-24T08:32:58;13.98;;;7.47;;
59109;SDS011;44895;47.438;18.978;2023-04-24T08:36:02;10.00;;;7.43;;
59109;SDS011;44895;47.438;18.978;2023-04-24T08:39:07;11.95;;;7.75;;
59109;SDS011;44895;47.438;18.978;2023-04-24T08:42:11;10.55;;;8.00;;
59109;SDS011;44895;47.438;18.978;2023-04-24T08:45:16;13.95;;;8.25;;
59109;SDS011;44895;47.438;18.978;2023-04-24T08:48:19;10.30;;;7.63;;
59109;SDS011;44895;47.438;18.978;2023-04-24T08:51:24;11.60;;;7.60;;
59109;SDS011;44895;47.438;18.978;2023-04-24T08:54:29;12.95;;;7.97;;
59109;SDS011;44895;47.438;18.978;2023-04-24T08:57:35;13.23;;;8.65;;
59109;SDS011;44895;47.438;18.978;2023-04-24T09:00:41;11.45;;;8.50;;
59109;SDS011;44895;47.438;18.978;2023-04-24T09:03:50;11.20;;;7.18;;
59109;SDS011;44895;47.438;18.978;2023-04-24T09:06:57;12.27;;;8.40;;
59109;SDS011;44895;47.438;18.978;2023-04-24T09:10:02;11.88;;;7.80;;
59109;SDS011;44895;47.438;18.978;2023-04-24T09:13:06;11.23;;;7.32;;
59109;SDS011;44895;47.438;18.978;2023-04-24T09:16:12;10.80;;;7.60;;
59109;SDS011;44895;47.438;18.978;2023-04-24T09:19:17;11.38;;;6.72;;
59109;SDS011;44895;47.438;18.978;2023-04-24T09:22:21;9.95;;;6.30;;
59109;SDS011;44895;47.438;18.978;2023-04-24T09:25:31;10.05;;;5.65;;
59109;SDS011;44895;47.438;18.978;2023-04-24T09:28:37;14.43;;;7.65;;
59109;SDS011;44895;47.438;18.978;2023-04-24T09:31:42;10.13;;;6.20;;
59109;SDS011;44895;47.438;18.978;2023-04-24T09:34:47;10.85;;;6.57;;
59109;SDS011;44895;47.438;18.978;2023-04-24T09:37:51;10.88;;;6.53;;
59109;SDS011;44895;47.438;18.978;2023-04-24T09:40:55;12.43;;;8.25;;
59109;SDS011;44895;47.438;18.978;2023-04-24T09:44:15;12.90;;;7.10;;
59109;SDS011;44895;47.438;18.978;2023-04-24T09:47:20;15.10;;;7.20;;
59109;SDS011;44895;47.438;18.978;2023-04-24T09:50:23;11.82;;;7.88;;
59109;SDS011;44895;47.438;18.978;2023-04-24T09:53:27;13.43;;;7.47;;
59109;SDS011;44895;47.438;18.978;2023-04-24T09:56:34;12.30;;;8.20;;
59109;SDS011;44895;47.438;18.978;2023-04-24T09:59:41;10.23;;;7.67;;
59109;SDS011;44895;47.438;18.978;2023-04-24T10:02:51;11.43;;;7.93;;
59109;SDS011;44895;47.438;18.978;2023-04-24T10:05:59;11.13;;;7.72;;
59109;SDS011;44895;47.438;18.978;2023-04-24T10:09:03;12.52;;;6.57;;
59109;SDS011;44895;47.438;18.978;2023-04-24T10:12:07;9.65;;;6.75;;
59109;SDS011;44895;47.438;18.978;2023-04-24T10:15:12;11.05;;;6.82;;
59109;SDS011;44895;47.438;18.978;2023-04-24T10:18:17;12.10;;;7.18;;
59109;SDS011;44895;47.438;18.978;2023-04-24T10:21:22;20.40;;;6.82;;
59109;SDS011;44895;47.438;18.978;2023-04-24T10:24:26;12.38;;;6.95;;
59109;SDS011;44895;47.438;18.978;2023-04-24T10:27:31;10.43;;;6.32;;
59109;SDS011;44895;47.438;18.978;2023-04-24T10:30:35;10.18;;;6.18;;
59109;SDS011;44895;47.438;18.978;2023-04-24T10:33:42;10.88;;;7.45;;
59109;SDS011;44895;47.438;18.978;2023-04-24T10:36:48;10.77;;;7.13;;
59109;SDS011;44895;47.438;18.978;2023-04-24T10:39:55;11.82;;;8.98;;
59109;SDS011;44895;47.438;18.978;2023-04-24T10:43:01;14.30;;;8.95;;
59109;SDS011;44895;47.438;18.978;2023-04-24T10:46:06;13.60;;;8.80;;
59109;SDS011;44895;47.438;18.978;2023-04-24T10:49:10;9.80;;;7.30;;
59109;SDS011;44895;47.438;18.978;2023-04-24T10:52:14;13.70;;;8.52;;
59109;SDS011;44895;47.438;18.978;2023-04-24T10:58:50;10.40;;;7.60;;
59109;SDS011;44895;47.438;18.978;2023-04-24T11:01:56;10.70;;;7.25;;
59109;SDS011;44895;47.438;18.978;2023-04-24T11:05:02;10.90;;;6.82;;
59109;SDS011;44895;47.438;18.978;2023-04-24T11:11:19;12.27;;;6.90;;
59109;SDS011;44895;47.438;18.978;2023-04-24T11:14:24;10.35;;;6.88;;
59109;SDS011;44895;47.438;18.978;2023-04-24T11:17:29;10.23;;;6.25;;
59109;SDS011;44895;47.438;18.978;2023-04-24T11:20:38;11.77;;;7.20;;
59109;SDS011;44895;47.438;18.978;2023-04-24T11:23:45;15.73;;;8.52;;
59109;SDS011;44895;47.438;18.978;2023-04-24T11:26:53;11.10;;;6.75;;
59109;SDS011;44895;47.438;18.978;2023-04-24T11:30:02;8.07;;;5.03;;
59109;SDS011;44895;47.438;18.978;2023-04-24T11:33:06;8.57;;;4.90;;
59109;SDS011;44895;47.438;18.978;2023-04-24T11:36:10;9.70;;;5.35;;
59109;SDS011;44895;47.438;18.978;2023-04-24T11:39:14;9.73;;;4.40;;
59109;SDS011;44895;47.438;18.978;2023-04-24T11:42:18;9.13;;;4.22;;
59109;SDS011;44895;47.438;18.978;2023-04-24T11:45:24;9.20;;;4.35;;
59109;SDS011;44895;47.438;18.978;2023-04-24T11:48:28;12.20;;;4.85;;
59109;SDS011;44895;47.438;18.978;2023-04-24T11:51:32;15.60;;;6.38;;
59109;SDS011;44895;47.438;18.978;2023-04-24T11:54:37;10.48;;;6.03;;
59109;SDS011;44895;47.438;18.978;2023-04-24T11:57:43;9.82;;;5.85;;
59109;SDS011;44895;47.438;18.978;2023-04-24T12:00:56;13.32;;;6.28;;
59109;SDS011;44895;47.438;18.978;2023-04-24T12:04:04;8.40;;;5.50;;
59109;SDS011;44895;47.438;18.978;2023-04-24T12:07:08;10.98;;;5.18;;
59109;SDS011;44895;47.438;18.978;2023-04-24T12:10:13;9.85;;;5.43;;
59109;SDS011;44895;47.438;18.978;2023-04-24T12:13:18;11.25;;;7.00;;
59109;SDS011;44895;47.438;18.978;2023-04-24T12:16:22;9.45;;;6.28;;
59109;SDS011;44895;47.438;18.978;2023-04-24T12:19:27;10.75;;;5.60;;
59109;SDS011;44895;47.438;18.978;2023-04-24T12:22:48;15.95;;;7.22;;
59109;SDS011;44895;47.438;18.978;2023-04-24T12:25:54;20.50;;;8.43;;
59109;SDS011;44895;47.438;18.978;2023-04-24T12:29:04;12.43;;;8.70;;
59109;SDS011;44895;47.438;18.978;2023-04-24T12:32:15;15.80;;;9.02;;
59109;SDS011;44895;47.438;18.978;2023-04-24T12:35:20;13.68;;;8.70;;
59109;SDS011;44895;47.438;18.978;2023-04-24T12:38:26;16.77;;;8.90;;
59109;SDS011;44895;47.438;18.978;2023-04-24T12:41:32;10.43;;;5.60;;
59109;SDS011;44895;47.438;18.978;2023-04-24T12:44:35;8.60;;;3.80;;
59109;SDS011;44895;47.438;18.978;2023-04-24T12:47:40;9.40;;;2.97;;
59109;SDS011;44895;47.438;18.978;2023-04-24T12:50:45;6.10;;;2.70;;
59109;SDS011;44895;47.438;18.978;2023-04-24T12:53:48;12.57;;;4.70;;
59109;SDS011;44895;47.438;18.978;2023-04-24T12:56:52;8.02;;;5.43;;
59109;SDS011;44895;47.438;18.978;2023-04-24T12:59:57;13.18;;;6.20;;
59109;SDS011;44895;47.438;18.978;2023-04-24T13:03:01;9.30;;;4.85;;
59109;SDS011;44895;47.438;18.978;2023-04-24T13:06:05;10.50;;;4.50;;
59109;SDS011;44895;47.438;18.978;2023-04-24T13:09:09;8.32;;;4.80;;
59109;SDS011;44895;47.438;18.978;2023-04-24T13:12:13;7.95;;;4.72;;
59109;SDS011;44895;47.438;18.978;2023-04-24T13:15:17;6.75;;;3.58;;
59109;SDS011;44895;47.438;18.978;2023-04-24T13:18:21;7.45;;;3.80;;
59109;SDS011;44895;47.438;18.978;2023-04-24T13:21:25;10.65;;;3.40;;
59109;SDS011;44895;47.438;18.978;2023-04-24T13:24:29;8.38;;;3.72;;
59109;SDS011;44895;47.438;18.978;2023-04-24T13:27:34;9.20;;;4.13;;
59109;SDS011;44895;47.438;18.978;2023-04-24T13:30:38;7.60;;;3.40;;
59109;SDS011;44895;47.438;18.978;2023-04-24T13:33:41;7.93;;;3.50;;
59109;SDS011;44895;47.438;18.978;2023-04-24T13:36:45;6.18;;;3.38;;
59109;SDS011;44895;47.438;18.978;2023-04-24T13:39:49;8.20;;;3.55;;
59109;SDS011;44895;47.438;18.978;2023-04-24T13:42:53;6.60;;;3.17;;
59109;SDS011;44895;47.438;18.978;2023-04-24T13:45:56;10.73;;;4.13;;
59109;SDS011;44895;47.438;18.978;2023-04-24T13:49:01;8.95;;;3.80;;
59109;SDS011;44895;47.438;18.978;2023-04-24T13:52:06;7.87;;;3.47;;
59109;SDS011;44895;47.438;18.978;2023-04-24T13:55:10;9.68;;;5.22;;
59109;SDS011;44895;47.438;18.978;2023-04-24T13:58:14;15.43;;;5.18;;
59109;SDS011;44895;47.438;18.978;2023-04-24T14:01:18;16.88;;;5.85;;
59109;SDS011;44895;47.438;18.978;2023-04-24T14:04:21;10.05;;;4.88;;
59109;SDS011;44895;47.438;18.978;2023-04-24T14:07:25;15.75;;;5.32;;
59109;SDS011;44895;47.438;18.978;2023-04-24T14:10:29;11.48;;;4.93;;
59109;SDS011;44895;47.438;18.978;2023-04-24T14:13:33;10.57;;;5.53;;
59109;SDS011;44895;47.438;18.978;2023-04-24T14:16:39;12.27;;;5.57;;
59109;SDS011;44895;47.438;18.978;2023-04-24T14:19:43;11.60;;;6.57;;
59109;SDS011;44895;47.438;18.978;2023-04-24T14:22:47;9.77;;;5.88;;
59109;SDS011;44895;47.438;18.978;2023-04-24T14:25:50;9.50;;;5.80;;
59109;SDS011;44895;47.438;18.978;2023-04-24T14:28:55;10.52;;;6.68;;
59109;SDS011;44895;47.438;18.978;2023-04-24T14:31:59;9.23;;;6.15;;
59109;SDS011;44895;47.438;18.978;2023-04-24T14:35:03;11.98;;;7.75;;
59109;SDS011;44895;47.438;18.978;2023-04-24T14:38:07;11.80;;;6.93;;
59109;SDS011;44895;47.438;18.978;2023-04-24T14:41:11;11.77;;;7.65;;
59109;SDS011;44895;47.438;18.978;2023-04-24T14:44:15;13.70;;;8.43;;
59109;SDS011;44895;47.438;18.978;2023-04-24T14:47:19;11.30;;;7.40;;
59109;SDS011;44895;47.438;18.978;2023-04-24T14:50:25;11.35;;;6.88;;
59109;SDS011;44895;47.438;18.978;2023-04-24T14:53:31;11.73;;;7.22;;
59109;SDS011;44895;47.438;18.978;2023-04-24T14:56:35;8.98;;;6.07;;
59109;SDS011;44895;47.438;18.978;2023-04-24T14:59:38;11.43;;;6.45;;
59109;SDS011;44895;47.438;18.978;2023-04-24T15:02:42;9.25;;;5.28;;
59109;SDS011;44895;47.438;18.978;2023-04-24T15:05:47;9.85;;;5.32;;
59109;SDS011;44895;47.438;18.978;2023-04-24T15:08:51;10.07;;;5.60;;
59109;SDS011;44895;47.438;18.978;2023-04-24T15:11:55;10.73;;;6.05;;
59109;SDS011;44895;47.438;18.978;2023-04-24T15:14:59;10.73;;;5.50;;
59109;SDS011;44895;47.438;18.978;2023-04-24T15:18:03;9.98;;;5.13;;
59109;SDS011;44895;47.438;18.978;2023-04-24T15:21:08;11.18;;;7.10;;
59109;SDS011;44895;47.438;18.978;2023-04-24T15:24:11;11.43;;;5.75;;
59109;SDS011;44895;47.438;18.978;2023-04-24T15:27:15;13.35;;;6.70;;
59109;SDS011;44895;47.438;18.978;2023-04-24T15:30:18;10.35;;;5.80;;
59109;SDS011;44895;47.438;18.978;2023-04-24T15:33:22;10.20;;;6.35;;
59109;SDS011;44895;47.438;18.978;2023-04-24T15:36:26;9.18;;;6.05;;
59109;SDS011;44895;47.438;18.978;2023-04-24T15:39:30;12.35;;;7.38;;
59109;SDS011;44895;47.438;18.978;2023-04-24T15:42:33;10.85;;;6.05;;
59109;SDS011;44895;47.438;18.978;2023-04-24T15:45:38;8.20;;;4.78;;
59109;SDS011;44895;47.438;18.978;2023-04-24T15:48:42;8.98;;;4.65;;
59109;SDS011;44895;47.438;18.978;2023-04-24T15:51:46;7.00;;;4.10;;
59109;SDS011;44895;47.438;18.978;2023-04-24T15:54:49;9.85;;;4.65;;
59109;SDS011;44895;47.438;18.978;2023-04-24T15:57:53;9.02;;;5.38;;
59109;SDS011;44895;47.438;18.978;2023-04-24T16:00:57;7.25;;;3.63;;
59109;SDS011;44895;47.438;18.978;2023-04-24T16:04:01;8.20;;;3.97;;
59109;SDS011;44895;47.438;18.978;2023-04-24T16:07:05;8.43;;;5.07;;
59109;SDS011;44895;47.438;18.978;2023-04-24T16:10:09;9.90;;;5.13;;
59109;SDS011;44895;47.438;18.978;2023-04-24T16:13:14;8.93;;;5.75;;
59109;SDS011;44895;47.438;18.978;2023-04-24T16:16:18;8.60;;;4.93;;
59109;SDS011;44895;47.438;18.978;2023-04-24T16:19:22;14.25;;;4.50;;
59109;SDS011;44895;47.438;18.978;2023-04-24T16:22:25;9.02;;;4.40;;
59109;SDS011;44895;47.438;18.978;2023-04-24T16:25:29;8.35;;;3.88;;
59109;SDS011;44895;47.438;18.978;2023-04-24T16:28:34;9.77;;;4.55;;
59109;SDS011;44895;47.438;18.978;2023-04-24T16:31:37;7.95;;;4.25;;
59109;SDS011;44895;47.438;18.978;2023-04-24T16:34:41;9.13;;;4.65;;
59109;SDS011;44895;47.438;18.978;2023-04-24T16:37:45;6.93;;;3.08;;
59109;SDS011;44895;47.438;18.978;2023-04-24T16:40:48;7.10;;;4.07;;
59109;SDS011;44895;47.438;18.978;2023-04-24T16:43:53;8.27;;;4.32;;
59109;SDS011;44895;47.438;18.978;2023-04-24T16:46:57;9.57;;;5.03;;
59109;SDS011;44895;47.438;18.978;2023-04-24T16:50:01;8.55;;;4.55;;
59109;SDS011;44895;47.438;18.978;2023-04-24T16:53:05;10.30;;;4.40;;
59109;SDS011;44895;47.438;18.978;2023-04-24T16:56:09;7.22;;;4.13;;
59109;SDS011;44895;47.438;18.978;2023-04-24T16:59:14;8.38;;;4.00;;
59109;SDS011;44895;47.438;18.978;2023-04-24T17:02:18;9.00;;;4.90;;
59109;SDS011;44895;47.438;18.978;2023-04-24T17:05:21;9.85;;;4.70;;
59109;SDS011;44895;47.438;18.978;2023-04-24T17:08:25;9.38;;;5.05;;
59109;SDS011;44895;47.438;18.978;2023-04-24T17:11:29;13.07;;;6.25;;
59109;SDS011;44895;47.438;18.978;2023-04-24T17:14:33;7.63;;;5.22;;
59109;SDS011;44895;47.438;18.978;2023-04-24T17:17:37;10.50;;;7.63;;
59109;SDS011;44895;47.438;18.978;2023-04-24T17:20:40;10.00;;;7.20;;
59109;SDS011;44895;47.438;18.978;2023-04-24T17:23:44;10.40;;;6.93;;
59109;SDS011;44895;47.438;18.978;2023-04-24T17:26:48;8.73;;;5.53;;
59109;SDS011;44895;47.438;18.978;2023-04-24T17:29:52;9.80;;;5.60;;
59109;SDS011;44895;47.438;18.978;2023-04-24T17:32:56;11.15;;;5.22;;
59109;SDS011;44895;47.438;18.978;2023-04-24T17:36:00;8.32;;;5.35;;
59109;SDS011;44895;47.438;18.978;2023-04-24T17:39:04;7.45;;;4.63;;
59109;SDS011;44895;47.438;18.978;2023-04-24T17:42:08;8.00;;;4.22;;
59109;SDS011;44895;47.438;18.978;2023-04-24T17:45:12;8.07;;;4.93;;
59109;SDS011;44895;47.438;18.978;2023-04-24T17:48:16;7.35;;;4.22;;
59109;SDS011;44895;47.438;18.978;2023-04-24T17:51:21;8.25;;;4.75;;
59109;SDS011;44895;47.438;18.978;2023-04-24T17:54:25;7.00;;;3.90;;
59109;SDS011;44895;47.438;18.978;2023-04-24T17:57:29;7.60;;;4.38;;
59109;SDS011;44895;47.438;18.978;2023-04-24T18:00:33;7.60;;;3.90;;
59109;SDS011;44895;47.438;18.978;2023-04-24T18:03:38;7.40;;;3.75;;
59109;SDS011;44895;47.438;18.978;2023-04-24T18:06:43;6.38;;;3.22;;
59109;SDS011;44895;47.438;18.978;2023-04-24T18:09:47;7.88;;;3.53;;